createdAt,value
2018-07-11T00:09:01.436Z,1015.85
2018-07-11T00:24:01.472Z,1015.75
2018-07-11T00:29:01.518Z,1015.75
2018-07-11T00:44:01.514Z,1015.86
2018-07-11T00:59:01.532Z,1015.88
2018-07-11T01:04:01.359Z,1015.73
2018-07-11T01:14:01.519Z,1015.81
2018-07-11T01:24:01.489Z,1015.76
2018-07-11T01:34:01.363Z,1015.69
2018-07-11T01:44:01.542Z,1015.57
2018-07-11T01:59:01.341Z,1015.55
2018-07-11T02:14:01.395Z,1015.44
2018-07-11T02:29:01.404Z,1015.4
2018-07-11T02:44:01.502Z,1015.35
2018-07-11T02:59:01.532Z,1015.29
2018-07-11T03:14:01.574Z,1015.12
2018-07-11T03:24:01.561Z,1015.03
2018-07-11T03:39:01.539Z,1014.99
2018-07-11T03:45:01.537Z,1015.07
2018-07-11T04:00:01.563Z,1015.04
2018-07-11T04:05:01.541Z,1015.08
2018-07-11T04:15:01.547Z,1015.1
2018-07-11T04:25:01.634Z,1015.1
2018-07-11T04:30:01.618Z,1015.1
2018-07-11T04:35:01.531Z,1015.05
2018-07-11T04:45:01.363Z,1015.12
2018-07-11T04:50:01.522Z,1015.12
2018-07-11T05:00:01.604Z,1015.06
2018-07-11T05:05:01.594Z,1014.99
2018-07-11T05:10:01.537Z,1014.99
2018-07-11T05:15:01.603Z,1015.01
2018-07-11T05:20:01.537Z,1015.01
2018-07-11T05:25:01.577Z,1014.86
2018-07-11T05:30:01.544Z,1014.86
2018-07-11T05:35:01.528Z,1014.85
2018-07-11T05:45:01.601Z,1014.97
2018-07-11T06:00:01.931Z,1014.89
2018-07-11T06:05:01.524Z,1014.91
2018-07-11T06:15:01.543Z,1014.98
2018-07-11T06:20:01.403Z,1014.98
2018-07-11T06:25:01.433Z,1015.05
2018-07-11T06:30:01.672Z,1015.05
2018-07-11T06:35:01.403Z,1015.07
2018-07-11T06:40:01.594Z,1015.07
2018-07-11T06:45:01.547Z,1015.12
2018-07-11T06:50:01.458Z,1015.12
2018-07-11T06:55:01.389Z,1015.19
2018-07-11T07:00:01.667Z,1015.19
2018-07-11T07:05:01.401Z,1015.16
2018-07-11T07:15:01.606Z,1015.18
2018-07-11T07:20:01.531Z,1015.18
2018-07-11T07:25:01.564Z,1015.04
2018-07-11T07:30:01.606Z,1015.04
2018-07-11T07:35:01.408Z,1014.96
2018-07-11T07:40:01.531Z,1014.96
2018-07-11T07:45:01.547Z,1014.88
2018-07-11T07:50:01.663Z,1014.88
2018-07-11T07:55:01.398Z,1014.83
2018-07-11T08:00:01.621Z,1014.83
2018-07-11T08:05:01.397Z,1014.87
2018-07-11T08:15:01.620Z,1014.89
2018-07-11T08:25:01.574Z,1014.77
2018-07-11T08:30:01.667Z,1014.77
2018-07-11T08:35:01.494Z,1014.78
2018-07-11T08:45:01.677Z,1014.79
2018-07-11T08:50:01.683Z,1014.79
2018-07-11T08:55:01.608Z,1014.7
2018-07-11T09:00:01.666Z,1014.7
2018-07-11T09:05:01.463Z,1014.67
2018-07-11T09:10:01.478Z,1014.67
2018-07-11T09:15:01.533Z,1014.73
2018-07-11T09:25:01.628Z,1014.63
2018-07-11T09:31:01.398Z,1014.63
2018-07-11T09:36:01.401Z,1014.57
2018-07-11T09:41:01.645Z,1014.57
2018-07-11T09:46:01.418Z,1014.57
2018-07-11T09:51:01.450Z,1014.57
2018-07-11T09:56:01.391Z,1014.57
2018-07-11T10:11:01.679Z,1014.6
2018-07-11T10:16:01.434Z,1014.47
2018-07-11T10:31:01.258Z,1014.38
2018-07-11T10:36:01.662Z,1014.33
2018-07-11T10:42:01.523Z,1014.33
2018-07-11T10:47:01.400Z,1014.39
2018-07-11T10:52:01.488Z,1014.39
2018-07-11T10:57:01.612Z,1014.19
2018-07-11T11:02:01.384Z,1014.19
2018-07-11T11:07:01.401Z,1014.16
2018-07-11T11:12:01.545Z,1014.16
2018-07-11T11:17:01.410Z,1014.07
2018-07-11T11:22:01.585Z,1014.07
2018-07-11T11:32:01.642Z,1014.11
2018-07-11T11:37:01.442Z,1013.95
2018-07-11T11:42:02.072Z,1013.95
2018-07-11T11:47:01.452Z,1014.03
2018-07-11T11:52:01.493Z,1014.03
2018-07-11T12:07:01.515Z,1013.92
2018-07-11T12:12:01.460Z,1013.92
2018-07-11T12:17:01.381Z,1013.98
2018-07-11T12:22:01.584Z,1013.98
2018-07-11T12:27:01.453Z,1014.02
2018-07-11T12:37:01.404Z,1013.96
2018-07-11T12:42:01.506Z,1013.96
2018-07-11T12:47:01.406Z,1013.83
2018-07-11T12:52:01.555Z,1013.83
2018-07-11T12:57:01.396Z,1013.81
2018-07-11T13:02:01.460Z,1013.81
2018-07-11T13:17:06.263Z,1013.68
2018-07-11T13:32:01.304Z,1013.66
2018-07-11T13:37:01.403Z,1013.6
2018-07-11T13:43:01.585Z,1013.6
2018-07-11T13:53:01.492Z,1013.59
2018-07-11T13:58:01.403Z,1013.67
2018-07-11T14:03:01.390Z,1013.67
2018-07-11T14:08:01.463Z,1013.64
2018-07-11T14:13:01.557Z,1013.64
2018-07-11T14:18:01.399Z,1013.64
2018-07-11T14:23:01.533Z,1013.64
2018-07-11T14:33:01.270Z,1013.55
2018-07-11T14:43:01.443Z,1013.53
2018-07-11T14:48:01.415Z,1013.48
2018-07-11T14:58:01.386Z,1013.39
2018-07-11T15:03:01.391Z,1013.39
2018-07-11T15:08:01.448Z,1013.46
2018-07-11T15:13:01.535Z,1013.46
2018-07-11T15:18:01.402Z,1013.31
2018-07-11T15:23:01.557Z,1013.31
2018-07-11T15:38:01.451Z,1013.41
2018-07-11T15:53:01.458Z,1013.41
2018-07-11T16:03:01.268Z,1013.33
2018-07-11T16:08:01.397Z,1013.24
2018-07-11T16:18:01.249Z,1013.26
2018-07-11T16:23:01.453Z,1013.26
2018-07-11T16:28:01.417Z,1013.29
2018-07-11T16:33:01.400Z,1013.29
2018-07-11T16:38:01.446Z,1013.23
2018-07-11T16:48:01.319Z,1013.3
2018-07-11T16:53:01.460Z,1013.3
2018-07-11T16:58:01.399Z,1013.3
2018-07-11T17:03:01.403Z,1013.3
2018-07-11T17:08:01.599Z,1013.41
2018-07-11T17:13:01.543Z,1013.41
2018-07-11T17:18:01.679Z,1013.42
2018-07-11T17:23:01.542Z,1013.42
2018-07-11T17:28:01.407Z,1013.42
2018-07-11T17:33:01.521Z,1013.42
2018-07-11T17:43:01.512Z,1013.45
2018-07-11T17:58:01.533Z,1013.51
2018-07-11T18:13:01.543Z,1013.45
2018-07-11T18:23:01.559Z,1013.6
2018-07-11T18:38:01.526Z,1013.66
2018-07-11T18:48:01.537Z,1013.77
2018-07-11T18:53:01.534Z,1013.77
2018-07-11T18:58:01.542Z,1013.72
2018-07-11T19:03:01.538Z,1013.72
2018-07-11T19:08:01.552Z,1013.79
2018-07-11T19:13:01.354Z,1013.79
2018-07-11T19:18:01.528Z,1013.76
2018-07-11T19:23:01.551Z,1013.76
2018-07-11T19:28:01.526Z,1013.74
2018-07-11T19:33:01.528Z,1013.74
2018-07-11T19:43:01.595Z,1013.79
2018-07-11T19:48:01.545Z,1013.86
2018-07-11T19:53:01.598Z,1013.86
2018-07-11T19:58:01.542Z,1013.93
2018-07-11T20:03:01.547Z,1013.93
2018-07-11T20:08:01.543Z,1014.1
2018-07-11T20:13:01.555Z,1014.1
2018-07-11T20:18:01.531Z,1014.15
2018-07-11T20:23:01.568Z,1014.15
2018-07-11T20:28:01.525Z,1014.09
2018-07-11T20:33:01.541Z,1014.09
2018-07-11T20:38:01.585Z,1014.15
2018-07-11T20:43:01.534Z,1014.15
2018-07-11T20:48:01.526Z,1014.21
2018-07-11T20:53:01.777Z,1014.21
2018-07-11T20:58:01.557Z,1014.2
2018-07-11T21:03:01.568Z,1014.2
2018-07-11T21:08:01.559Z,1014.23
2018-07-11T21:13:01.559Z,1014.23
2018-07-11T21:18:01.526Z,1014.22
2018-07-11T21:28:01.532Z,1014.2
2018-07-11T21:38:01.378Z,1014.25
2018-07-11T21:43:01.449Z,1014.25
2018-07-11T21:48:01.412Z,1014.14
2018-07-11T21:58:01.501Z,1014.09
2018-07-11T22:08:01.462Z,1013.99
2018-07-11T22:18:01.529Z,1014.03
2018-07-11T22:33:01.561Z,1014.01
2018-07-11T22:43:01.582Z,1013.97
2018-07-11T22:48:01.386Z,1014.09
2018-07-11T22:53:01.509Z,1014.09
2018-07-11T22:58:01.385Z,1014.16
2018-07-11T23:03:01.480Z,1014.16
2018-07-11T23:08:01.387Z,1014.2
2018-07-11T23:13:01.523Z,1014.2
2018-07-11T23:28:01.591Z,1014.29
2018-07-11T23:33:01.626Z,1014.29
2018-07-11T23:48:01.447Z,1014.16
